createdAt,value
2022-09-13T00:00:59.850Z,100.00
2022-09-13T00:03:04.827Z,100.00
2022-09-13T00:05:08.019Z,100.00
2022-09-13T00:07:10.674Z,100.00
2022-09-13T00:09:13.841Z,100.00
2022-09-13T00:11:18.807Z,100.00
2022-09-13T00:13:21.507Z,100.00
2022-09-13T00:15:24.244Z,100.00
2022-09-13T00:17:27.164Z,100.00
2022-09-13T00:19:31.259Z,100.00
2022-09-13T00:21:34.221Z,100.00
2022-09-13T00:23:37.979Z,100.00
2022-09-13T00:25:40.764Z,100.00
2022-09-13T00:27:44.635Z,100.00
2022-09-13T00:29:47.285Z,100.00
2022-09-13T00:31:50.086Z,100.00
2022-09-13T00:33:53.004Z,100.00
2022-09-13T00:35:56.985Z,100.00
2022-09-13T00:38:01.274Z,100.00
2022-09-13T00:40:05.261Z,100.00
2022-09-13T00:42:11.366Z,100.00
2022-09-13T00:44:55.088Z,100.00
2022-09-13T00:46:57.943Z,100.00
2022-09-13T00:49:05.443Z,100.00
2022-09-13T00:51:11.629Z,100.00
2022-09-13T00:53:18.040Z,100.00
2022-09-13T00:55:25.563Z,100.00
2022-09-13T00:57:30.161Z,100.00
2022-09-13T00:59:38.464Z,100.00
2022-09-13T01:01:48.800Z,100.00
2022-09-13T01:03:51.987Z,100.00
2022-09-13T01:05:58.813Z,100.00
2022-09-13T01:08:04.293Z,100.00
2022-09-13T01:10:09.025Z,100.00
2022-09-13T01:12:18.909Z,100.00
2022-09-13T01:14:23.399Z,100.00
2022-09-13T01:16:26.684Z,100.00
2022-09-13T01:18:29.511Z,100.00
2022-09-13T01:20:47.590Z,100.00
2022-09-13T01:23:37.015Z,100.00
2022-09-13T01:26:19.873Z,100.00
2022-09-13T01:28:57.282Z,100.00
2022-09-13T01:31:08.255Z,100.00
2022-09-13T01:33:27.082Z,100.00
2022-09-13T01:35:43.368Z,100.00
2022-09-13T01:37:54.214Z,100.00
2022-09-13T01:40:06.941Z,100.00
2022-09-13T01:42:21.307Z,100.00
2022-09-13T01:44:36.900Z,100.00
2022-09-13T01:46:49.662Z,100.00
2022-09-13T01:48:57.894Z,100.00
2022-09-13T01:51:07.031Z,100.00
2022-09-13T01:53:23.053Z,100.00
2022-09-13T01:55:35.917Z,100.00
2022-09-13T01:57:44.942Z,100.00
2022-09-13T01:59:52.453Z,100.00
2022-09-13T02:02:02.393Z,100.00
2022-09-13T02:04:10.352Z,100.00
2022-09-13T02:06:19.384Z,100.00
2022-09-13T02:08:30.238Z,100.00
2022-09-13T02:10:39.358Z,100.00
2022-09-13T02:12:44.469Z,100.00
2022-09-13T02:14:53.135Z,100.00
2022-09-13T02:17:02.574Z,100.00
2022-09-13T02:19:10.768Z,100.00
2022-09-13T02:21:18.806Z,100.00
2022-09-13T02:23:31.338Z,100.00
2022-09-13T02:25:37.730Z,100.00
2022-09-13T02:27:45.763Z,100.00
2022-09-13T02:29:52.053Z,100.00
2022-09-13T02:32:01.156Z,100.00
2022-09-13T02:34:08.390Z,100.00
2022-09-13T02:36:16.392Z,100.00
2022-09-13T02:38:24.188Z,100.00
2022-09-13T02:40:31.485Z,100.00
2022-09-13T02:42:38.619Z,100.00
2022-09-13T02:44:44.565Z,100.00
2022-09-13T02:47:11.965Z,100.00
2022-09-13T02:49:23.747Z,100.00
2022-09-13T02:51:33.369Z,100.00
2022-09-13T02:53:44.246Z,100.00
2022-09-13T02:55:58.444Z,100.00
2022-09-13T02:58:05.876Z,100.00
2022-09-13T03:00:10.003Z,100.00
2022-09-13T03:02:18.108Z,100.00
2022-09-13T03:04:21.417Z,100.00
2022-09-13T03:06:25.288Z,100.00
2022-09-13T03:08:29.167Z,100.00
2022-09-13T03:10:42.159Z,100.00
2022-09-13T03:13:12.201Z,100.00
2022-09-13T03:15:25.767Z,100.00
2022-09-13T03:17:47.312Z,100.00
2022-09-13T03:20:04.873Z,100.00
2022-09-13T03:22:29.283Z,100.00
2022-09-13T03:24:42.061Z,100.00
2022-09-13T03:26:55.835Z,100.00
2022-09-13T03:29:12.149Z,100.00
2022-09-13T03:31:22.939Z,100.00
2022-09-13T03:33:32.211Z,100.00
2022-09-13T03:35:41.325Z,100.00
2022-09-13T03:37:53.524Z,100.00
2022-09-13T03:40:01.227Z,100.00
2022-09-13T03:42:11.108Z,100.00
2022-09-13T03:44:18.329Z,100.00
2022-09-13T03:46:27.232Z,100.00
2022-09-13T03:48:32.600Z,100.00
2022-09-13T03:50:36.588Z,100.00
2022-09-13T03:52:42.242Z,100.00
2022-09-13T03:54:48.642Z,100.00
2022-09-13T03:57:12.872Z,100.00
2022-09-13T03:59:15.823Z,100.00
2022-09-13T04:01:21.827Z,100.00
2022-09-13T04:03:24.718Z,100.00
2022-09-13T04:05:28.845Z,100.00
2022-09-13T04:07:31.703Z,100.00
2022-09-13T04:09:34.789Z,100.00
2022-09-13T04:11:37.977Z,100.00
2022-09-13T04:13:41.383Z,100.00
2022-09-13T04:15:44.104Z,100.00
2022-09-13T04:17:46.822Z,100.00
2022-09-13T04:19:49.663Z,100.00
2022-09-13T04:21:55.915Z,100.00
2022-09-13T04:23:58.634Z,100.00
2022-09-13T04:26:05.871Z,100.00
2022-09-13T04:28:09.483Z,100.00
2022-09-13T04:30:13.341Z,100.00
2022-09-13T04:32:16.111Z,100.00
2022-09-13T04:34:19.379Z,100.00
2022-09-13T04:36:22.956Z,100.00
2022-09-13T04:38:27.255Z,100.00
2022-09-13T04:40:30.019Z,100.00
2022-09-13T04:42:32.645Z,100.00
2022-09-13T04:44:35.299Z,100.00
2022-09-13T04:46:37.932Z,100.00
2022-09-13T04:48:40.554Z,100.00
2022-09-13T04:50:43.223Z,100.00
2022-09-13T04:52:45.856Z,100.00
2022-09-13T04:54:49.794Z,100.00
2022-09-13T04:56:52.411Z,100.00
2022-09-13T04:58:56.413Z,100.00
2022-09-13T05:01:02.540Z,100.00
2022-09-13T05:03:05.327Z,100.00
2022-09-13T05:05:08.784Z,100.00
2022-09-13T05:07:11.569Z,100.00
2022-09-13T05:09:15.064Z,100.00
2022-09-13T05:11:19.355Z,100.00
2022-09-13T05:13:22.006Z,100.00
2022-09-13T05:15:24.670Z,100.00
2022-09-13T05:17:27.506Z,100.00
2022-09-13T05:19:30.321Z,100.00
2022-09-13T05:21:33.258Z,100.00
2022-09-13T05:23:35.869Z,100.00
2022-09-13T05:25:38.492Z,100.00
2022-09-13T05:27:42.492Z,100.00
2022-09-13T05:29:45.100Z,100.00
2022-09-13T05:31:47.875Z,100.00
2022-09-13T05:33:54.819Z,100.00
2022-09-13T05:35:57.538Z,100.00
2022-09-13T05:38:00.160Z,100.00
2022-09-13T05:40:14.250Z,100.00
2022-09-13T05:42:17.377Z,100.00
2022-09-13T05:44:21.394Z,100.00
2022-09-13T05:46:24.201Z,100.00
2022-09-13T05:48:27.125Z,100.00
2022-09-13T05:50:56.794Z,100.00
2022-09-13T05:52:53.666Z,100.00
2022-09-13T05:54:56.384Z,100.00
2022-09-13T05:56:59.042Z,100.00
2022-09-13T05:59:01.730Z,100.00
2022-09-13T06:01:06.147Z,100.00
2022-09-13T06:03:09.358Z,100.00
2022-09-13T06:05:12.609Z,100.00
2022-09-13T06:07:15.315Z,100.00
2022-09-13T06:09:18.719Z,100.00
2022-09-13T06:11:21.653Z,100.00
2022-09-13T06:13:24.854Z,100.00
2022-09-13T06:15:27.614Z,100.00
2022-09-13T06:17:31.797Z,100.00
2022-09-13T06:19:34.548Z,100.00
2022-09-13T06:21:37.283Z,100.00
2022-09-13T06:23:40.067Z,100.00
2022-09-13T06:25:43.251Z,100.00
2022-09-13T06:27:45.955Z,100.00
2022-09-13T06:29:48.622Z,100.00
2022-09-13T06:31:51.303Z,100.00
2022-09-13T06:33:59.021Z,100.00
2022-09-13T06:36:02.651Z,100.00
2022-09-13T06:38:05.455Z,100.00
2022-09-13T06:40:09.523Z,100.00
2022-09-13T06:42:12.452Z,100.00
2022-09-13T06:44:15.977Z,100.00
2022-09-13T06:46:24.611Z,100.00
2022-09-13T06:48:28.725Z,100.00
2022-09-13T06:50:32.888Z,100.00
2022-09-13T06:52:35.616Z,100.00
2022-09-13T06:54:38.323Z,99.27
2022-09-13T06:56:41.049Z,97.52
2022-09-13T06:58:46.528Z,98.24
2022-09-13T07:00:51.873Z,98.36
2022-09-13T07:02:58.203Z,98.47
2022-09-13T07:05:00.897Z,98.64
2022-09-13T07:07:04.966Z,98.23
2022-09-13T07:09:09.888Z,99.12
2022-09-13T07:11:14.815Z,98.85
2022-09-13T07:13:17.563Z,99.35
2022-09-13T07:15:20.510Z,98.64
2022-09-13T07:17:23.167Z,99.50
2022-09-13T07:19:27.377Z,99.31
2022-09-13T07:21:30.510Z,98.43
2022-09-13T07:23:35.806Z,97.79
2022-09-13T07:25:38.459Z,96.98
2022-09-13T07:27:41.950Z,97.98
2022-09-13T07:29:44.689Z,98.79
2022-09-13T07:31:49.348Z,96.74
2022-09-13T07:33:55.449Z,96.45
2022-09-13T07:35:59.732Z,94.43
2022-09-13T07:38:02.440Z,93.85
2022-09-13T07:40:07.960Z,93.65
2022-09-13T07:42:10.705Z,92.71
2022-09-13T07:44:13.778Z,93.29
2022-09-13T07:46:18.312Z,91.93
2022-09-13T07:48:21.042Z,95.29
2022-09-13T07:50:23.731Z,99.01
2022-09-13T07:52:26.462Z,100.00
2022-09-13T07:54:30.178Z,100.00
2022-09-13T07:56:35.800Z,100.00
2022-09-13T07:58:40.329Z,100.00
2022-09-13T08:00:43.139Z,100.00
2022-09-13T08:02:45.987Z,99.64
2022-09-13T08:04:48.842Z,100.00
2022-09-13T08:06:51.578Z,99.98
2022-09-13T08:08:55.147Z,100.00
2022-09-13T08:10:58.180Z,100.00
2022-09-13T08:13:02.650Z,97.15
2022-09-13T08:15:06.538Z,93.55
2022-09-13T08:17:10.553Z,91.72
2022-09-13T08:19:15.843Z,91.40
2022-09-13T08:21:19.115Z,91.43
2022-09-13T08:23:21.923Z,91.41
2022-09-13T08:25:24.652Z,91.32
2022-09-13T08:27:29.094Z,91.63
2022-09-13T08:29:33.266Z,90.53
2022-09-13T08:31:36.701Z,89.83
2022-09-13T08:33:44.228Z,88.77
2022-09-13T08:35:53.026Z,86.73
2022-09-13T08:37:56.031Z,85.72
2022-09-13T08:39:58.816Z,84.90
2022-09-13T08:42:24.750Z,83.96
2022-09-13T08:44:31.163Z,83.43
2022-09-13T08:46:38.717Z,81.97
2022-09-13T08:48:45.570Z,80.55
2022-09-13T08:50:53.392Z,78.31
2022-09-13T08:55:09.249Z,75.10
2022-09-13T08:57:19.382Z,75.11
2022-09-13T08:59:37.514Z,74.41
2022-09-13T09:01:51.815Z,76.43
2022-09-13T09:04:04.509Z,75.97
2022-09-13T09:06:13.179Z,76.03
2022-09-13T09:08:27.864Z,72.19
2022-09-13T09:10:33.604Z,71.21
2022-09-13T09:12:42.659Z,70.45
2022-09-13T09:14:51.081Z,69.38
2022-09-13T09:16:58.459Z,69.30
2022-09-13T09:19:10.990Z,69.62
2022-09-13T09:21:18.516Z,68.33
2022-09-13T09:23:25.411Z,68.25
2022-09-13T09:25:28.279Z,67.64
2022-09-13T09:27:32.347Z,65.78
2022-09-13T09:29:38.192Z,65.00
2022-09-13T09:31:49.855Z,65.84
2022-09-13T09:34:09.033Z,65.86
2022-09-13T09:36:20.070Z,64.48
2022-09-13T09:38:42.777Z,62.52
2022-09-13T09:40:45.628Z,60.67
2022-09-13T09:42:49.831Z,59.60
2022-09-13T09:44:54.733Z,53.53
2022-09-13T09:47:02.430Z,52.81
2022-09-13T09:49:30.397Z,50.27
2022-09-13T09:51:34.559Z,54.35
2022-09-13T09:53:43.497Z,49.36
2022-09-13T09:55:50.322Z,48.84
2022-09-13T09:57:55.654Z,48.11
2022-09-13T10:00:13.146Z,47.99
2022-09-13T10:02:18.652Z,48.61
2022-09-13T10:04:23.868Z,46.54
2022-09-13T10:06:30.117Z,44.26
2022-09-13T10:08:36.975Z,43.51
2022-09-13T10:10:43.666Z,41.57
2022-09-13T10:12:51.884Z,42.28
2022-09-13T10:15:05.553Z,42.64
2022-09-13T10:17:18.317Z,42.55
2022-09-13T10:19:28.194Z,41.72
2022-09-13T10:21:31.017Z,41.70
2022-09-13T10:23:35.390Z,41.23
2022-09-13T10:25:39.743Z,40.81
2022-09-13T10:27:48.716Z,40.72
2022-09-13T10:29:55.329Z,40.41
2022-09-13T10:31:58.987Z,38.84
2022-09-13T10:34:04.674Z,38.58
2022-09-13T10:36:29.571Z,39.44
2022-09-13T10:38:45.511Z,38.62
2022-09-13T10:40:49.318Z,38.92
2022-09-13T10:42:54.428Z,37.92
2022-09-13T10:44:59.148Z,38.84
2022-09-13T10:47:05.573Z,35.75
2022-09-13T10:49:39.233Z,36.79
2022-09-13T10:51:43.937Z,34.90
2022-09-13T10:53:47.422Z,36.48
2022-09-13T10:55:54.828Z,36.38
2022-09-13T10:58:14.736Z,37.07
2022-09-13T11:00:20.176Z,36.50
2022-09-13T11:02:38.933Z,35.93
2022-09-13T11:05:08.618Z,35.74
2022-09-13T11:07:33.508Z,35.30
2022-09-13T11:09:43.202Z,34.95
2022-09-13T11:11:57.907Z,34.68
2022-09-13T11:14:15.029Z,33.54
2022-09-13T11:16:32.832Z,33.21
2022-09-13T11:18:58.089Z,32.97
2022-09-13T11:21:10.143Z,32.08
2022-09-13T11:23:36.650Z,31.42
2022-09-13T11:26:07.973Z,32.85
2022-09-13T11:28:21.956Z,33.07
2022-09-13T11:30:29.914Z,32.82
2022-09-13T11:32:48.484Z,31.40
2022-09-13T11:35:19.778Z,32.43
2022-09-13T11:37:41.170Z,31.83
2022-09-13T11:39:56.033Z,30.35
2022-09-13T11:42:09.862Z,30.14
2022-09-13T11:44:42.175Z,29.25
2022-09-13T11:46:52.084Z,29.04
2022-09-13T11:49:07.774Z,29.05
2022-09-13T11:51:21.118Z,29.04
2022-09-13T11:53:50.315Z,29.37
2022-09-13T11:55:59.553Z,28.12
2022-09-13T11:58:05.447Z,28.86
2022-09-13T12:00:20.336Z,27.73
2022-09-13T12:02:29.648Z,26.74
2022-09-13T12:04:38.366Z,26.58
2022-09-13T12:06:43.993Z,26.11
2022-09-13T12:08:51.381Z,29.06
2022-09-13T12:10:57.763Z,28.95
2022-09-13T12:13:04.058Z,27.97
2022-09-13T12:15:14.889Z,28.80
2022-09-13T12:17:27.933Z,28.22
2022-09-13T12:19:37.630Z,28.18
2022-09-13T12:21:43.871Z,28.85
2022-09-13T12:23:54.379Z,28.31
2022-09-13T12:26:03.421Z,26.92
2022-09-13T12:28:14.173Z,25.94
2022-09-13T12:30:19.949Z,26.62
2022-09-13T12:32:23.742Z,25.48
2022-09-13T12:34:33.370Z,26.55
2022-09-13T12:37:07.124Z,25.96
2022-09-13T12:39:27.066Z,25.76
2022-09-13T12:41:47.352Z,24.67
2022-09-13T12:44:31.685Z,24.52
2022-09-13T12:47:17.043Z,25.86
2022-09-13T12:49:34.608Z,27.40
2022-09-13T12:51:56.593Z,26.09
2022-09-13T12:54:23.787Z,24.26
2022-09-13T12:56:41.849Z,27.75
2022-09-13T12:59:06.304Z,28.39
2022-09-13T13:01:15.143Z,28.57
2022-09-13T13:03:21.161Z,28.85
2022-09-13T13:05:30.930Z,28.55
2022-09-13T13:07:37.916Z,29.25
2022-09-13T13:09:43.632Z,27.84
2022-09-13T13:11:50.816Z,26.89
2022-09-13T13:14:03.489Z,26.17
2022-09-13T13:16:23.451Z,26.13
2022-09-13T13:18:30.203Z,26.69
2022-09-13T13:21:22.513Z,27.15
2022-09-13T13:23:29.988Z,26.87
2022-09-13T13:25:39.100Z,26.39
2022-09-13T13:27:48.581Z,26.53
2022-09-13T13:30:37.190Z,26.74
2022-09-13T13:33:06.506Z,25.16
2022-09-13T13:35:29.921Z,23.24
2022-09-13T13:37:36.773Z,23.04
2022-09-13T13:39:41.911Z,21.53
2022-09-13T13:41:52.563Z,20.24
2022-09-13T13:43:56.708Z,19.99
2022-09-13T13:46:15.439Z,20.05
2022-09-13T13:48:36.380Z,20.73
2022-09-13T13:51:17.383Z,21.53
2022-09-13T13:53:24.657Z,20.51
2022-09-13T13:55:45.146Z,20.96
2022-09-13T13:57:58.358Z,20.66
2022-09-13T14:00:14.569Z,20.29
2022-09-13T14:02:22.161Z,20.49
2022-09-13T14:05:00.859Z,20.23
2022-09-13T14:07:21.059Z,19.86
2022-09-13T14:09:33.735Z,19.76
2022-09-13T14:11:49.253Z,20.00
2022-09-13T14:14:04.449Z,19.49
2022-09-13T14:16:16.105Z,19.88
2022-09-13T14:18:45.020Z,19.77
2022-09-13T14:21:01.744Z,19.56
2022-09-13T14:23:14.177Z,19.91
2022-09-13T14:25:25.299Z,20.21
2022-09-13T14:27:30.477Z,19.92
2022-09-13T14:29:33.370Z,19.98
2022-09-13T14:31:39.024Z,20.02
2022-09-13T14:33:41.846Z,19.90
2022-09-13T14:35:44.567Z,20.17
2022-09-13T14:37:47.307Z,21.24
2022-09-13T14:39:57.554Z,20.89
2022-09-13T14:42:02.354Z,21.36
2022-09-13T14:44:23.682Z,21.33
2022-09-13T14:46:32.979Z,22.03
2022-09-13T14:48:42.204Z,22.25
2022-09-13T14:50:52.736Z,22.84
2022-09-13T14:52:58.473Z,22.95
2022-09-13T14:55:04.705Z,22.62
2022-09-13T14:57:11.090Z,23.82
2022-09-13T14:59:18.921Z,23.79
2022-09-13T15:01:27.838Z,23.45
2022-09-13T15:03:30.985Z,24.11
2022-09-13T15:05:37.396Z,24.47
2022-09-13T15:07:42.040Z,24.74
2022-09-13T15:09:44.920Z,24.39
2022-09-13T15:12:01.066Z,24.39
2022-09-13T15:14:27.143Z,24.75
2022-09-13T15:16:32.692Z,25.03
2022-09-13T15:18:37.344Z,25.50
2022-09-13T15:20:50.423Z,26.30
2022-09-13T15:22:54.010Z,25.45
2022-09-13T15:24:58.898Z,26.67
2022-09-13T15:27:07.415Z,26.47
2022-09-13T15:29:19.530Z,26.32
2022-09-13T15:31:24.445Z,26.66
2022-09-13T15:33:29.844Z,27.10
2022-09-13T15:35:37.670Z,27.56
2022-09-13T15:37:41.803Z,27.13
2022-09-13T15:39:50.083Z,27.51
2022-09-13T15:41:54.342Z,27.89
2022-09-13T15:43:57.028Z,28.16
2022-09-13T15:46:01.740Z,28.91
2022-09-13T15:48:04.666Z,30.21
2022-09-13T15:50:08.147Z,31.12
2022-09-13T15:52:11.352Z,31.77
2022-09-13T15:54:17.082Z,32.35
2022-09-13T15:56:21.903Z,32.73
2022-09-13T15:58:24.932Z,33.27
2022-09-13T16:00:29.041Z,33.80
2022-09-13T16:02:33.850Z,34.36
2022-09-13T16:04:36.666Z,34.34
2022-09-13T16:06:40.266Z,34.35
2022-09-13T16:08:43.162Z,34.61
2022-09-13T16:10:47.996Z,34.56
2022-09-13T16:12:51.446Z,35.01
2022-09-13T16:14:54.911Z,35.13
2022-09-13T16:16:57.757Z,35.05
2022-09-13T16:19:00.435Z,35.44
2022-09-13T16:21:03.120Z,35.92
2022-09-13T16:23:05.810Z,35.55
2022-09-13T16:25:09.475Z,35.69
2022-09-13T16:27:14.851Z,35.73
2022-09-13T16:29:17.601Z,35.98
2022-09-13T16:31:20.452Z,36.13
2022-09-13T16:33:23.226Z,36.30
2022-09-13T16:35:28.895Z,36.61
2022-09-13T16:37:31.761Z,36.59
2022-09-13T16:39:34.636Z,35.91
2022-09-13T16:41:39.257Z,35.36
2022-09-13T16:43:49.741Z,35.61
2022-09-13T16:45:52.509Z,35.71
2022-09-13T16:47:55.434Z,36.11
2022-09-13T16:49:58.194Z,36.89
2022-09-13T16:52:01.311Z,36.85
2022-09-13T16:54:04.329Z,37.18
2022-09-13T16:56:07.759Z,38.10
2022-09-13T16:58:10.448Z,38.78
2022-09-13T17:00:19.158Z,39.75
2022-09-13T17:02:22.364Z,39.75
2022-09-13T17:04:25.719Z,38.61
2022-09-13T17:06:28.828Z,39.74
2022-09-13T17:08:32.111Z,40.06
2022-09-13T17:10:34.873Z,40.46
2022-09-13T17:12:37.681Z,41.08
2022-09-13T17:14:42.613Z,41.16
2022-09-13T17:16:48.901Z,41.56
2022-09-13T17:18:52.208Z,42.15
2022-09-13T17:20:54.929Z,42.53
2022-09-13T17:22:57.767Z,42.40
2022-09-13T17:25:01.631Z,42.82
2022-09-13T17:27:06.674Z,42.67
2022-09-13T17:29:09.557Z,42.68
2022-09-13T17:31:12.402Z,43.84
2022-09-13T17:33:16.600Z,43.83
2022-09-13T17:35:19.334Z,44.77
2022-09-13T17:37:21.980Z,45.02
2022-09-13T17:39:24.957Z,45.20
2022-09-13T17:41:27.814Z,45.95
2022-09-13T17:43:30.671Z,46.12
2022-09-13T17:45:33.946Z,46.86
2022-09-13T17:47:36.589Z,45.98
2022-09-13T17:49:40.805Z,46.36
2022-09-13T17:51:43.475Z,47.41
2022-09-13T17:53:48.584Z,47.47
2022-09-13T17:55:51.670Z,48.73
2022-09-13T17:57:55.695Z,49.43
2022-09-13T17:59:58.377Z,48.79
2022-09-13T18:02:01.303Z,49.20
2022-09-13T18:04:04.362Z,49.04
2022-09-13T18:06:10.595Z,49.86
2022-09-13T18:08:13.377Z,50.35
2022-09-13T18:10:42.636Z,49.67
2022-09-13T18:12:40.109Z,48.62
2022-09-13T18:14:42.805Z,49.34
2022-09-13T18:16:46.610Z,49.10
2022-09-13T18:18:50.621Z,49.89
2022-09-13T18:20:53.350Z,50.05
2022-09-13T18:22:57.358Z,50.30
2022-09-13T18:25:00.016Z,50.48
2022-09-13T18:27:03.566Z,49.97
2022-09-13T18:29:10.397Z,50.64
2022-09-13T18:31:15.884Z,50.71
2022-09-13T18:33:20.942Z,50.34
2022-09-13T18:35:23.669Z,50.90
2022-09-13T18:37:26.348Z,51.51
2022-09-13T18:39:30.718Z,52.38
2022-09-13T18:41:35.227Z,52.79
2022-09-13T18:43:40.158Z,53.78
2022-09-13T18:45:43.008Z,53.64
2022-09-13T18:47:45.913Z,53.32
2022-09-13T18:49:48.951Z,52.87
2022-09-13T18:51:51.798Z,53.11
2022-09-13T18:53:55.618Z,54.10
2022-09-13T18:56:01.595Z,53.22
2022-09-13T18:58:05.046Z,53.43
2022-09-13T19:00:09.530Z,53.98
2022-09-13T19:02:12.857Z,54.48
2022-09-13T19:04:17.836Z,54.46
2022-09-13T19:06:22.796Z,55.04
2022-09-13T19:08:25.470Z,54.57
2022-09-13T19:10:28.513Z,55.63
2022-09-13T19:12:32.519Z,56.05
2022-09-13T19:14:35.294Z,56.49
2022-09-13T19:16:37.923Z,57.17
2022-09-13T19:18:42.925Z,57.29
2022-09-13T19:20:45.596Z,55.90
2022-09-13T19:22:48.238Z,58.10
2022-09-13T19:24:52.408Z,58.86
2022-09-13T19:26:55.278Z,58.40
2022-09-13T19:29:04.436Z,59.03
2022-09-13T19:31:09.368Z,58.19
2022-09-13T19:33:13.565Z,59.57
2022-09-13T19:35:16.311Z,59.39
2022-09-13T19:37:19.112Z,58.72
2022-09-13T19:39:24.774Z,58.14
2022-09-13T19:41:30.722Z,59.30
2022-09-13T19:43:36.937Z,60.68
2022-09-13T19:45:40.959Z,60.03
2022-09-13T19:48:25.816Z,59.35
2022-09-13T19:50:07.545Z,59.07
2022-09-13T19:52:10.303Z,60.69
2022-09-13T19:54:14.870Z,61.48
2022-09-13T19:56:19.134Z,61.66
2022-09-13T19:58:21.950Z,61.40
2022-09-13T20:00:24.626Z,61.17
2022-09-13T20:02:28.610Z,60.26
2022-09-13T20:04:31.333Z,59.16
2022-09-13T20:06:36.488Z,62.63
2022-09-13T20:08:40.191Z,61.18
2022-09-13T20:10:42.943Z,64.13
2022-09-13T20:12:45.548Z,63.73
2022-09-13T20:14:48.176Z,63.12
2022-09-13T20:16:50.807Z,63.59
2022-09-13T20:18:57.060Z,64.76
2022-09-13T20:21:04.672Z,65.35
2022-09-13T20:23:07.370Z,66.03
2022-09-13T20:25:11.285Z,63.59
2022-09-13T20:27:14.399Z,65.29
2022-09-13T20:29:17.136Z,65.89
2022-09-13T20:31:19.842Z,68.74
2022-09-13T20:33:22.957Z,73.18
2022-09-13T20:35:27.018Z,75.79
2022-09-13T20:37:29.700Z,76.95
2022-09-13T20:39:32.384Z,79.39
2022-09-13T20:41:35.372Z,76.53
2022-09-13T20:43:38.992Z,78.25
2022-09-13T20:45:42.286Z,80.67
2022-09-13T20:47:46.673Z,79.19
2022-09-13T20:49:49.392Z,80.98
2022-09-13T20:51:53.514Z,84.23
2022-09-13T20:54:00.378Z,80.91
2022-09-13T20:56:03.973Z,79.75
2022-09-13T20:58:06.675Z,82.35
2022-09-13T21:00:11.512Z,82.99
2022-09-13T21:02:14.331Z,78.67
2022-09-13T21:04:17.523Z,77.91
2022-09-13T21:06:21.896Z,77.98
2022-09-13T21:08:42.983Z,77.99
2022-09-13T21:10:56.067Z,77.81
2022-09-13T21:13:00.899Z,80.02
2022-09-13T21:15:03.949Z,78.50
2022-09-13T21:17:08.090Z,76.32
2022-09-13T21:19:11.267Z,78.23
2022-09-13T21:21:17.089Z,80.85
2022-09-13T21:23:19.712Z,85.34
2022-09-13T21:25:23.674Z,87.36
2022-09-13T21:27:26.304Z,85.98
2022-09-13T21:29:29.627Z,87.73
2022-09-13T21:31:34.296Z,83.49
2022-09-13T21:33:37.314Z,82.94
2022-09-13T21:35:40.294Z,83.21
2022-09-13T21:37:43.011Z,83.24
2022-09-13T21:39:45.730Z,84.00
2022-09-13T21:41:50.032Z,80.78
2022-09-13T21:43:52.871Z,81.72
2022-09-13T21:46:03.525Z,84.52
2022-09-13T21:48:06.657Z,83.43
2022-09-13T21:50:10.417Z,86.18
2022-09-13T21:52:13.746Z,89.64
2022-09-13T21:54:18.392Z,89.36
2022-09-13T21:56:22.705Z,85.47
2022-09-13T21:58:27.029Z,84.42
2022-09-13T22:00:29.793Z,84.34
2022-09-13T22:02:32.918Z,80.90
2022-09-13T22:04:35.824Z,84.17
2022-09-13T22:06:38.569Z,86.31
2022-09-13T22:08:44.274Z,88.16
2022-09-13T22:10:46.953Z,88.75
2022-09-13T22:12:49.696Z,90.35
2022-09-13T22:14:53.754Z,92.54
2022-09-13T22:16:56.699Z,88.92
2022-09-13T22:19:07.969Z,91.01
2022-09-13T22:21:14.351Z,92.23
2022-09-13T22:23:17.337Z,94.71
2022-09-13T22:25:20.015Z,93.89
2022-09-13T22:27:22.683Z,96.11
2022-09-13T22:29:25.921Z,95.20
2022-09-13T22:31:32.580Z,90.92
2022-09-13T22:33:36.002Z,95.80
2022-09-13T22:35:38.664Z,92.57
2022-09-13T22:37:41.416Z,89.41
2022-09-13T22:39:44.190Z,88.01
2022-09-13T22:41:47.130Z,91.09
2022-09-13T22:43:50.299Z,90.66
2022-09-13T22:45:53.753Z,90.04
2022-09-13T22:47:57.966Z,91.72
2022-09-13T22:50:00.674Z,89.35
2022-09-13T22:52:03.763Z,87.89
2022-09-13T22:54:07.798Z,91.34
2022-09-13T22:56:13.720Z,93.13
2022-09-13T22:58:17.669Z,91.56
2022-09-13T23:00:20.458Z,92.55
2022-09-13T23:02:23.197Z,91.56
2022-09-13T23:04:27.587Z,93.34
2022-09-13T23:06:31.251Z,94.64
2022-09-13T23:08:34.594Z,94.68
2022-09-13T23:10:37.331Z,94.81
2022-09-13T23:12:40.009Z,94.59
2022-09-13T23:14:42.709Z,95.33
2022-09-13T23:16:46.984Z,95.92
2022-09-13T23:18:49.989Z,99.39
2022-09-13T23:20:58.495Z,98.47
2022-09-13T23:23:01.236Z,96.68
2022-09-13T23:25:04.362Z,97.69
2022-09-13T23:27:07.868Z,97.58
2022-09-13T23:29:14.004Z,98.58
2022-09-13T23:31:19.822Z,99.83
2022-09-13T23:33:22.637Z,99.76
2022-09-13T23:35:25.959Z,96.90
2022-09-13T23:37:30.487Z,93.08
2022-09-13T23:39:33.287Z,94.17
2022-09-13T23:41:36.536Z,92.54
2022-09-13T23:43:39.595Z,94.03
2022-09-13T23:45:44.030Z,93.39
2022-09-13T23:47:46.747Z,93.64
2022-09-13T23:49:49.612Z,94.37
2022-09-13T23:51:52.768Z,93.79
2022-09-13T23:53:58.342Z,94.23
2022-09-13T23:56:01.408Z,92.46
2022-09-13T23:58:04.099Z,93.00
